KHOT/HOT METAR and TAF weather

Enter ICAO airport designator
Station Type Date Time Source
KHOT METAR 2019/10/15 03:53 UTC NOAA

KHOT 150353Z AUTO 15005KT 10SM OVC015 19/16 A3003 RMK AO2 SLP165 T01890156


Station Type Date Time Source
KHOT Decoded METAR 2019/10/15 03:53 UTC NOAA

HOT SPRINGS MEMORIAL FIELD, AR, United States (KHOT) 34-29N 093-06W 162M
Oct 14, 2019 - 11:53 PM EDT / 2019.10.15 0353 UTC
Wind: from the SSE (150 degrees) at 6 MPH (5 KT):0
Visibility: 10 mile(s):0
Sky conditions: overcast
Temperature: 66.0 F (18.9 C)
Dew Point: 60.1 F (15.6 C)
Relative Humidity: 81%
Pressure (altimeter): 30.03 in. Hg (1016 hPa)
ob: KHOT 150353Z AUTO 15005KT 10SM OVC015 19/16 A3003 RMK AO2 SLP165 T01890156
cycle: 4

Station Type Date Time Source
KHOT TAF 2019/10/15 02:58 UTC NOAA

TAF
AMD KHOT 150158Z 1502/1524 13003KT P6SM OVC025
FM150900 15003KT 2SM BR VCSH BKN005 OVC100
FM151400 12005KT 6SM -SHRA BR BKN025 OVC060 PROB30 1514/1520 4SM -SHRA BR OVC015
FM152000 12005KT P6SM VCSH OVC040

Example: see airport list